ΕΜΥ, Εθνική Μετεωρολογική Υπηρεσία - Δελτία Καιρού, Προγνώσεις

ΑΕΡΟΝΑΥΤΙΛΙΑ

GREEK AIRPORTS CODES

LGTT 090700Z 00000KT 9999 FEW025 08/07 Q1016 RMK SCT080=

EUROPEAN AIRPORTS CODES

LFPO 090700Z 25007KT 220V280 CAVOK 02/01 Q1007 NOSIG=